Time;durP1;ratioP1;P1;durP2;ratioP2;P2;SDS_P1;SDS_P2;PMS_P1;PMS_P2;Temp;Humidity;BMP_temperature;BMP_pressure;BME280_temperature;BME280_humidity;BME280_pressure;Samples;Min_cycle;Max_cycle;Signal;HPM_P1;HPM_P2
2023/03/01 00:02:20;;;;;;;14.97;9.03;;;-2.20;99.90;;;;;;4999769;28;20219;-77
2023/03/01 00:04:49;;;;;;;11.37;8.43;;;-2.30;99.90;;;;;;4998382;28;20220;-76
2023/03/01 00:07:15;;;;;;;13.77;9.10;;;-2.30;99.90;;;;;;4990610;28;20228;-76
2023/03/01 00:09:45;;;;;;;13.20;8.20;;;-2.20;99.90;;;;;;4997155;28;20228;-76
2023/03/01 00:12:12;;;;;;;14.17;8.33;;;-2.30;99.90;;;;;;4981707;28;20258;-76
2023/03/01 00:14:40;;;;;;;12.77;7.90;;;-2.30;99.90;;;;;;4980206;28;20227;-76
2023/03/01 00:17:07;;;;;;;11.70;8.30;;;-2.30;99.90;;;;;;4969452;28;20229;-76
2023/03/01 00:19:34;;;;;;;12.03;7.90;;;-2.30;99.90;;;;;;4988353;28;20309;-78
2023/03/01 00:22:03;;;;;;;12.17;8.13;;;-2.30;99.90;;;;;;4995080;28;20225;-77
2023/03/01 00:24:30;;;;;;;12.07;8.17;;;-2.40;99.90;;;;;;4972992;28;20234;-77
2023/03/01 00:26:57;;;;;;;10.63;8.23;;;-2.40;99.90;;;;;;4979951;28;20238;-77
2023/03/01 00:29:24;;;;;;;14.30;8.93;;;-2.40;99.90;;;;;;4971035;28;20236;-78
2023/03/01 00:31:51;;;;;;;11.67;7.83;;;-2.40;99.90;;;;;;4984870;28;20221;-78
2023/03/01 00:34:18;;;;;;;13.07;8.17;;;-2.40;99.90;;;;;;4975670;28;20224;-78
2023/03/01 00:36:45;;;;;;;14.43;8.13;;;-2.40;99.90;;;;;;4984831;28;20308;-77
2023/03/01 00:39:15;;;;;;;10.10;7.67;;;-2.40;99.90;;;;;;4970683;28;20317;-77
2023/03/01 00:41:42;;;;;;;11.20;7.13;;;-2.40;99.90;;;;;;4989823;28;20303;-77
2023/03/01 00:44:10;;;;;;;11.60;7.10;;;-2.40;99.90;;;;;;4977916;28;20621;-77
2023/03/01 00:46:36;;;;;;;12.77;7.23;;;-2.50;99.90;;;;;;4968613;28;20240;-77
2023/03/01 00:49:05;;;;;;;9.83;6.40;;;-2.50;99.90;;;;;;4973373;28;20231;-79
2023/03/01 00:51:31;;;;;;;10.33;6.30;;;-2.50;99.90;;;;;;4976906;28;20240;-78
2023/03/01 00:54:01;;;;;;;12.77;7.77;;;-2.50;99.90;;;;;;4989714;28;20251;-78
2023/03/01 00:56:29;;;;;;;12.00;7.53;;;-2.50;99.90;;;;;;4987258;28;20229;-78
2023/03/01 00:58:57;;;;;;;10.97;7.27;;;-2.60;99.90;;;;;;4976303;28;20773;-77
2023/03/01 01:01:27;;;;;;;10.03;7.20;;;-2.60;99.90;;;;;;4972798;28;20242;-78
2023/03/01 01:03:56;;;;;;;11.97;7.10;;;-2.60;99.90;;;;;;4979135;28;20224;-78
2023/03/01 01:06:26;;;;;;;10.60;6.97;;;-2.60;99.90;;;;;;4977882;28;20280;-78
2023/03/01 01:08:54;;;;;;;12.20;8.13;;;-2.60;99.90;;;;;;4981147;28;20237;-77
2023/03/01 01:11:22;;;;;;;9.93;7.50;;;-2.70;99.90;;;;;;4974716;28;20230;-77
2023/03/01 01:13:51;;;;;;;11.07;7.80;;;-2.70;99.90;;;;;;4977532;28;20304;-77
2023/03/01 01:16:20;;;;;;;11.77;8.30;;;-2.70;99.90;;;;;;4975206;28;20245;-76
2023/03/01 01:18:47;;;;;;;11.97;7.53;;;-2.70;99.90;;;;;;4975385;28;20321;-77
2023/03/01 01:21:15;;;;;;;15.13;8.57;;;-2.70;99.90;;;;;;4978385;28;20875;-77
2023/03/01 01:23:44;;;;;;;12.77;8.13;;;-2.70;99.90;;;;;;4969330;28;21388;-77
2023/03/01 01:26:13;;;;;;;14.30;8.30;;;-2.70;99.90;;;;;;4978859;28;20238;-77
2023/03/01 01:28:39;;;;;;;12.67;8.43;;;-2.70;99.90;;;;;;4966318;28;20321;-77
2023/03/01 01:31:07;;;;;;;15.43;8.90;;;-2.70;99.90;;;;;;4973889;28;20232;-77
2023/03/01 01:33:35;;;;;;;13.40;9.10;;;-2.60;99.90;;;;;;4970135;28;20817;-77
2023/03/01 01:36:02;;;;;;;11.90;7.97;;;-2.60;99.90;;;;;;4973873;28;20234;-77
2023/03/01 01:38:28;;;;;;;12.20;7.87;;;-2.60;99.90;;;;;;4977584;28;20229;-77
2023/03/01 01:40:55;;;;;;;13.83;8.57;;;-2.60;99.90;;;;;;4976480;28;20224;-77
2023/03/01 01:43:25;;;;;;;14.77;8.13;;;-2.60;99.90;;;;;;4980223;28;20754;-77
2023/03/01 01:45:53;;;;;;;11.77;7.30;;;-2.50;99.90;;;;;;4979819;28;20228;-77
2023/03/01 01:48:24;;;;;;;10.60;6.70;;;-2.50;99.90;;;;;;4984194;28;20234;-77
2023/03/01 01:50:56;;;;;;;9.87;6.67;;;-2.60;99.90;;;;;;4979708;28;20225;-77
2023/03/01 01:53:23;;;;;;;11.47;6.50;;;-2.60;99.90;;;;;;4977548;28;20236;-76
2023/03/01 01:55:56;;;;;;;9.47;5.93;;;-2.60;99.90;;;;;;4988600;28;20226;-77
2023/03/01 01:58:26;;;;;;;9.97;6.43;;;-2.60;99.90;;;;;;4975910;28;20275;-78
2023/03/01 02:00:54;;;;;;;8.13;6.03;;;-2.60;99.90;;;;;;4992670;28;20232;-76
2023/03/01 02:03:28;;;;;;;12.80;7.10;;;-2.70;99.90;;;;;;4980958;28;20568;-76
2023/03/01 02:06:01;;;;;;;13.33;7.40;;;-2.70;99.90;;;;;;4977190;28;20250;-76
2023/03/01 02:08:31;;;;;;;11.73;7.50;;;-2.70;99.90;;;;;;5008185;28;20241;-77
2023/03/01 02:10:59;;;;;;;11.97;7.00;;;-2.70;99.90;;;;;;4986753;28;20236;-78
2023/03/01 02:13:26;;;;;;;10.17;6.90;;;-2.70;99.90;;;;;;4984453;28;20219;-78
2023/03/01 02:15:55;;;;;;;10.93;6.70;;;-2.80;99.90;;;;;;5015723;28;20213;-78
2023/03/01 02:18:24;;;;;;;10.23;6.60;;;-2.80;99.90;;;;;;5001857;28;20763;-78
2023/03/01 02:21:05;;;;;;;12.27;7.30;;;-2.80;99.90;;;;;;4980983;28;20236;-78
2023/03/01 02:23:33;;;;;;;11.83;6.70;;;-2.80;99.90;;;;;;4981476;28;20783;-77
2023/03/01 02:26:07;;;;;;;12.03;6.83;;;-2.80;99.90;;;;;;5002803;28;20319;-78
2023/03/01 02:28:37;;;;;;;14.07;7.27;;;-2.70;99.90;;;;;;4988203;28;20312;-77
2023/03/01 02:33:49;;;;;;;14.50;8.37;;;-2.80;99.90;;;;;;5002450;28;20311;-78
2023/03/01 02:36:19;;;;;;;13.33;7.90;;;-2.80;99.90;;;;;;5001538;28;20621;-78
2023/03/01 02:38:47;;;;;;;12.17;8.47;;;-2.80;99.90;;;;;;4989877;28;20311;-78
2023/03/01 02:41:17;;;;;;;14.00;8.17;;;-2.80;99.90;;;;;;4986939;28;20225;-78
2023/03/01 02:43:46;;;;;;;13.20;7.47;;;-2.80;99.90;;;;;;4982461;28;20316;-78
2023/03/01 02:46:16;;;;;;;12.23;7.90;;;-2.80;99.90;;;;;;5011401;28;20249;-77
2023/03/01 02:48:46;;;;;;;14.33;7.77;;;-2.80;99.90;;;;;;5001068;28;20705;-77
2023/03/01 02:51:27;;;;;;;10.93;7.00;;;-2.80;99.90;;;;;;5008852;28;20234;-77
2023/03/01 02:54:05;;;;;;;11.93;7.47;;;-2.80;99.90;;;;;;4984729;28;20242;-77
2023/03/01 03:00:24;;;;;;;8.80;6.90;;;-2.70;99.90;;;;;;4975477;28;20245;-77
2023/03/01 03:02:53;;;;;;;10.77;6.30;;;-2.70;99.90;;;;;;4997629;28;20227;-77
2023/03/01 03:05:25;;;;;;;12.37;7.40;;;-2.70;99.90;;;;;;5010903;28;20918;-78
2023/03/01 03:07:56;;;;;;;10.20;7.30;;;-2.70;99.90;;;;;;5017110;28;20228;-77
2023/03/01 03:10:25;;;;;;;10.17;6.93;;;-2.70;99.90;;;;;;5006141;28;20224;-77
2023/03/01 03:12:53;;;;;;;11.03;6.70;;;-2.70;99.90;;;;;;4984774;28;20225;-77
2023/03/01 03:15:22;;;;;;;13.00;7.47;;;-2.70;99.90;;;;;;4987084;28;20846;-78
2023/03/01 03:17:50;;;;;;;9.30;6.37;;;-2.70;99.90;;;;;;4981754;28;20221;-78
2023/03/01 03:20:19;;;;;;;10.63;7.13;;;-2.70;99.90;;;;;;4996900;28;20236;-77
2023/03/01 03:22:47;;;;;;;9.93;7.03;;;-2.70;99.90;;;;;;4993136;28;20228;-77
2023/03/01 03:25:14;;;;;;;10.87;7.53;;;-2.60;99.90;;;;;;4996371;28;20227;-77
2023/03/01 03:27:43;;;;;;;10.13;7.00;;;-2.60;99.90;;;;;;5013115;28;20231;-77
2023/03/01 03:30:14;;;;;;;13.07;7.13;;;-2.50;99.90;;;;;;4998131;28;20232;-77
2023/03/01 03:32:50;;;;;;;11.23;7.27;;;-2.50;99.90;;;;;;4998184;28;20227;-77
2023/03/01 03:35:17;;;;;;;10.03;7.40;;;-2.40;99.90;;;;;;4996480;28;20232;-78
2023/03/01 03:40:29;;;;;;;13.07;8.40;;;-2.30;99.90;;;;;;4997745;28;20276;-78
2023/03/01 03:42:56;;;;;;;10.37;6.93;;;-2.20;99.90;;;;;;4999360;28;20255;-78
2023/03/01 03:45:23;;;;;;;11.57;7.20;;;-2.20;99.90;;;;;;4982992;28;20225;-77
2023/03/01 03:47:51;;;;;;;10.83;7.70;;;-2.10;99.90;;;;;;4999966;28;20235;-77
2023/03/01 03:50:18;;;;;;;11.20;7.63;;;-2.00;99.90;;;;;;4993432;28;20890;-77
2023/03/01 03:52:45;;;;;;;11.60;7.73;;;-2.00;99.90;;;;;;4979709;28;20225;-77
2023/03/01 03:55:13;;;;;;;11.30;8.13;;;-1.90;99.90;;;;;;4992828;28;20227;-77
2023/03/01 03:57:40;;;;;;;13.03;8.23;;;-1.80;99.90;;;;;;4993600;28;20230;-76
2023/03/01 04:00:12;;;;;;;14.57;8.37;;;-1.70;99.90;;;;;;4994452;28;20723;-77
2023/03/01 04:02:39;;;;;;;14.13;8.90;;;-1.70;99.90;;;;;;4994416;28;20222;-77
2023/03/01 04:05:09;;;;;;;14.67;9.00;;;-1.60;99.90;;;;;;4983017;28;20218;-77
2023/03/01 04:07:36;;;;;;;13.40;8.47;;;-1.50;99.90;;;;;;5004034;28;20719;-77
2023/03/01 04:10:06;;;;;;;12.67;8.57;;;-1.50;99.90;;;;;;4991258;28;20221;-78
2023/03/01 04:12:33;;;;;;;11.97;8.13;;;-1.40;99.90;;;;;;5009849;28;20725;-78
2023/03/01 04:15:00;;;;;;;13.60;8.50;;;-1.30;99.90;;;;;;4993539;28;20228;-78
2023/03/01 04:17:27;;;;;;;12.70;7.90;;;-1.20;99.90;;;;;;4999941;28;20259;-78
2023/03/01 04:19:54;;;;;;;13.10;8.40;;;-1.20;99.90;;;;;;5000861;28;20244;-78
2023/03/01 04:22:22;;;;;;;12.80;8.37;;;-1.20;99.90;;;;;;4990930;28;20290;-77
2023/03/01 04:24:49;;;;;;;13.73;8.60;;;-1.10;99.90;;;;;;4996978;28;20225;-78
2023/03/01 04:27:16;;;;;;;14.37;8.80;;;-1.00;99.90;;;;;;4994602;28;20695;-78
2023/03/01 04:29:43;;;;;;;12.33;8.63;;;-1.00;99.90;;;;;;4996726;28;20775;-78
2023/03/01 04:32:10;;;;;;;14.10;8.60;;;-0.90;99.90;;;;;;4978362;28;20238;-78
2023/03/01 04:34:36;;;;;;;13.63;8.47;;;-0.90;99.90;;;;;;4997691;28;20237;-78
2023/03/01 04:37:03;;;;;;;10.10;8.50;;;-0.80;99.90;;;;;;5001364;28;20226;-78
2023/03/01 04:39:32;;;;;;;12.40;8.00;;;-0.80;99.90;;;;;;4974077;28;20316;-78
2023/03/01 04:41:59;;;;;;;12.57;8.03;;;-0.70;99.90;;;;;;5009605;23;20228;-82
2023/03/01 04:44:26;;;;;;;16.00;8.73;;;-0.60;99.90;;;;;;4994549;28;20309;-80
2023/03/01 04:46:52;;;;;;;13.30;7.43;;;-0.60;99.90;;;;;;4997467;28;20228;-81
2023/03/01 04:49:19;;;;;;;12.93;8.30;;;-0.50;99.90;;;;;;4986481;28;20222;-81
2023/03/01 04:51:46;;;;;;;10.97;7.43;;;-0.50;99.90;;;;;;4999050;28;20238;-81
2023/03/01 04:54:12;;;;;;;10.03;7.47;;;-0.50;99.90;;;;;;4983399;28;20234;-80
2023/03/01 04:56:40;;;;;;;13.43;8.23;;;-0.40;99.90;;;;;;4979980;28;20216;-81
2023/03/01 04:59:12;;;;;;;10.27;7.20;;;-0.40;99.90;;;;;;4985461;28;20289;-82
2023/03/01 05:01:42;;;;;;;11.47;7.47;;;-0.30;99.90;;;;;;4982992;28;20220;-82
2023/03/01 05:04:14;;;;;;;11.97;8.00;;;-0.30;99.90;;;;;;4980175;28;20716;-83
2023/03/01 05:06:53;;;;;;;12.97;7.97;;;-0.20;99.90;;;;;;4993900;28;20570;-82
2023/03/01 05:09:27;;;;;;;12.67;8.43;;;-0.10;99.90;;;;;;4986746;28;20317;-82
2023/03/01 05:11:55;;;;;;;12.50;8.00;;;-0.20;99.90;;;;;;4994819;28;20226;-83
2023/03/01 05:14:22;;;;;;;18.47;11.63;;;-0.10;99.90;;;;;;4986358;28;20235;-80
2023/03/01 05:16:49;;;;;;;19.80;11.43;;;-0.10;99.90;;;;;;4978094;28;21062;-80
2023/03/01 05:19:16;;;;;;;22.73;14.67;;;-0.10;99.90;;;;;;4981289;28;20225;-81
2023/03/01 05:24:23;;;;;;;17.97;12.37;;;0.00;99.90;;;;;;4991426;28;20218;-81
2023/03/01 05:26:51;;;;;;;17.60;10.87;;;0.00;99.90;;;;;;4997333;28;20225;-81
2023/03/01 05:29:24;;;;;;;17.27;10.60;;;0.00;99.90;;;;;;4982115;28;20298;-80
2023/03/01 05:31:53;;;;;;;15.17;10.50;;;0.10;99.90;;;;;;4978815;28;21010;-80
2023/03/01 05:34:22;;;;;;;17.07;10.67;;;0.20;99.90;;;;;;4981965;28;20232;-79
2023/03/01 05:36:51;;;;;;;21.93;14.37;;;0.20;99.90;;;;;;4984158;28;20228;-77
2023/03/01 05:39:21;;;;;;;20.97;13.63;;;0.20;99.90;;;;;;4977766;28;20239;-80
2023/03/01 05:41:48;;;;;;;17.43;9.00;;;0.20;99.90;;;;;;4980661;28;20527;-80
2023/03/01 05:44:15;;;;;;;11.33;8.33;;;0.20;99.90;;;;;;4982932;28;20291;-79
2023/03/01 05:46:44;;;;;;;15.97;9.93;;;0.20;99.90;;;;;;4981486;28;20225;-79
2023/03/01 05:49:13;;;;;;;15.60;11.20;;;0.30;99.90;;;;;;4996073;28;20214;-79
2023/03/01 05:51:39;;;;;;;16.20;10.67;;;0.30;99.90;;;;;;4991344;28;20225;-81
2023/03/01 05:54:06;;;;;;;16.30;10.90;;;0.30;99.90;;;;;;4980738;28;20328;-83
2023/03/01 05:56:34;;;;;;;19.37;10.17;;;0.30;99.90;;;;;;4982144;28;20233;-83
2023/03/01 05:59:01;;;;;;;14.30;9.77;;;0.30;99.90;;;;;;4980834;28;20229;-81
2023/03/01 06:01:29;;;;;;;11.93;8.97;;;0.30;99.90;;;;;;4982979;28;20236;-78
2023/03/01 06:03:57;;;;;;;13.07;8.70;;;0.30;99.90;;;;;;4990078;28;20252;-83
2023/03/01 06:06:24;;;;;;;11.50;8.47;;;0.30;99.90;;;;;;4993785;28;20706;-80
2023/03/01 06:08:51;;;;;;;17.07;12.23;;;0.40;99.90;;;;;;4980196;28;20224;-78
2023/03/01 06:11:18;;;;;;;18.17;12.67;;;0.30;99.90;;;;;;4985186;28;20225;-81
2023/03/01 06:13:46;;;;;;;13.53;9.77;;;0.30;99.90;;;;;;4997067;28;20323;-81
2023/03/01 06:16:13;;;;;;;13.37;8.90;;;0.30;99.90;;;;;;4975298;28;20867;-81
2023/03/01 06:18:40;;;;;;;11.53;8.57;;;0.20;99.90;;;;;;4985655;28;20244;-79
2023/03/01 06:21:09;;;;;;;14.03;9.07;;;0.30;99.90;;;;;;4976980;28;20318;-80
2023/03/01 06:23:36;;;;;;;12.73;9.23;;;0.20;99.90;;;;;;4977254;28;20242;-81
2023/03/01 06:26:07;;;;;;;11.53;8.23;;;0.20;99.90;;;;;;4982618;28;20239;-81
2023/03/01 06:28:34;;;;;;;12.60;9.07;;;0.20;99.90;;;;;;4984909;28;20658;-80
2023/03/01 06:31:01;;;;;;;14.43;8.87;;;0.30;99.90;;;;;;4972676;28;20325;-79
2023/03/01 06:33:27;;;;;;;10.13;7.47;;;0.30;99.90;;;;;;4997558;28;20309;-80
2023/03/01 06:35:55;;;;;;;11.17;7.40;;;0.30;99.90;;;;;;4987365;28;20236;-82
2023/03/01 06:38:23;;;;;;;11.43;8.17;;;0.40;99.90;;;;;;4996890;28;20758;-82
2023/03/01 06:40:53;;;;;;;11.77;8.07;;;0.40;99.90;;;;;;4985541;28;20268;-82
2023/03/01 06:43:20;;;;;;;12.97;8.13;;;0.40;99.90;;;;;;4998304;28;20967;-82
2023/03/01 06:45:49;;;;;;;12.10;8.47;;;0.50;99.90;;;;;;4978438;28;20220;-82
2023/03/01 06:48:19;;;;;;;12.87;8.20;;;0.60;99.90;;;;;;4988769;28;20222;-82
2023/03/01 06:50:45;;;;;;;10.60;7.63;;;0.60;99.90;;;;;;5002899;28;20248;-82
2023/03/01 06:53:12;;;;;;;10.00;7.43;;;0.60;99.90;;;;;;4984066;28;20229;-82
2023/03/01 06:55:40;;;;;;;11.90;7.37;;;0.70;99.90;;;;;;4998926;28;20237;-82
2023/03/01 06:58:07;;;;;;;11.83;7.50;;;0.70;99.90;;;;;;4987853;28;20236;-82
2023/03/01 07:00:34;;;;;;;15.43;8.60;;;0.80;99.90;;;;;;4995329;28;20557;-82
2023/03/01 07:03:03;;;;;;;10.17;7.93;;;0.80;99.90;;;;;;4973775;28;20226;-82
2023/03/01 07:05:30;;;;;;;9.33;7.90;;;0.90;99.90;;;;;;4977526;28;20242;-82
2023/03/01 07:07:57;;;;;;;13.27;8.13;;;1.00;99.90;;;;;;4984242;28;20238;-81
2023/03/01 07:10:23;;;;;;;12.50;8.00;;;1.00;99.90;;;;;;4987964;28;20244;-82
2023/03/01 07:12:54;;;;;;;12.20;8.00;;;1.00;99.90;;;;;;4984383;28;20232;-82
2023/03/01 07:15:21;;;;;;;11.07;7.57;;;1.10;99.90;;;;;;4982265;28;20248;-82
2023/03/01 07:17:50;;;;;;;53.80;32.67;;;1.10;99.90;;;;;;4988211;28;20233;-81
2023/03/01 07:20:17;;;;;;;39.00;25.77;;;1.20;99.90;;;;;;4975157;28;20730;-80
2023/03/01 07:22:44;;;;;;;17.77;11.30;;;1.20;99.90;;;;;;4989920;28;20261;-80
2023/03/01 07:25:11;;;;;;;16.00;10.03;;;1.30;99.90;;;;;;4990432;28;20240;-79
2023/03/01 07:27:38;;;;;;;14.70;10.00;;;1.40;99.90;;;;;;4986597;28;20229;-80
2023/03/01 07:30:07;;;;;;;14.17;9.40;;;1.50;99.90;;;;;;4988467;28;20239;-80
2023/03/01 07:32:34;;;;;;;13.03;9.33;;;1.60;99.90;;;;;;4988046;28;20232;-80
2023/03/01 07:35:01;;;;;;;18.50;12.30;;;1.80;99.90;;;;;;4979306;28;20711;-80
2023/03/01 07:37:27;;;;;;;14.97;10.03;;;1.90;99.90;;;;;;4987569;28;20231;-79
2023/03/01 07:39:54;;;;;;;14.00;9.30;;;2.00;99.90;;;;;;4987967;28;20240;-79
2023/03/01 07:42:21;;;;;;;17.83;12.47;;;2.10;99.90;;;;;;4985180;28;20229;-80
2023/03/01 07:44:47;;;;;;;17.63;10.20;;;2.20;99.90;;;;;;4981682;28;20219;-80
2023/03/01 07:47:15;;;;;;;32.60;21.50;;;2.30;99.90;;;;;;4985359;28;20227;-80
2023/03/01 07:49:42;;;;;;;24.90;17.27;;;2.40;99.90;;;;;;4994714;28;20319;-80
2023/03/01 07:52:11;;;;;;;15.20;10.70;;;2.50;99.90;;;;;;4981979;28;20266;-80
2023/03/01 07:54:38;;;;;;;23.60;16.20;;;2.60;99.90;;;;;;5001714;28;20730;-80
2023/03/01 07:57:05;;;;;;;20.07;13.43;;;2.70;99.90;;;;;;4985278;28;20263;-80
2023/03/01 07:59:32;;;;;;;16.97;11.60;;;2.80;99.90;;;;;;4988414;28;20225;-80
2023/03/01 08:01:59;;;;;;;13.00;9.63;;;2.90;99.90;;;;;;4988351;28;20244;-80
2023/03/01 08:04:27;;;;;;;15.90;10.13;;;3.00;99.90;;;;;;4988604;28;20227;-80
2023/03/01 08:06:54;;;;;;;17.37;10.23;;;3.10;99.90;;;;;;4995411;28;20297;-80
2023/03/01 08:09:21;;;;;;;17.40;9.63;;;3.20;99.90;;;;;;4996317;28;20731;-80
2023/03/01 08:11:48;;;;;;;19.20;10.53;;;3.30;99.90;;;;;;4981015;28;20231;-80
2023/03/01 08:14:14;;;;;;;15.57;9.77;;;3.40;99.90;;;;;;4991840;28;20228;-80
2023/03/01 08:16:41;;;;;;;14.90;10.37;;;3.50;99.90;;;;;;4994503;28;20242;-80
2023/03/01 08:19:10;;;;;;;16.00;9.43;;;3.60;99.90;;;;;;4995406;28;20236;-80
2023/03/01 08:21:39;;;;;;;13.70;10.20;;;3.70;99.90;;;;;;4987305;28;20935;-79
2023/03/01 08:24:07;;;;;;;13.23;9.73;;;3.90;99.90;;;;;;4988275;28;20234;-80
2023/03/01 08:26:34;;;;;;;14.83;10.57;;;4.00;99.90;;;;;;4986340;28;20230;-80
2023/03/01 08:29:01;;;;;;;13.80;9.80;;;4.10;99.90;;;;;;4985525;28;20221;-80
2023/03/01 08:31:30;;;;;;;14.37;9.97;;;4.20;99.90;;;;;;4997941;28;20239;-80
2023/03/01 08:34:00;;;;;;;15.27;10.53;;;4.30;99.90;;;;;;4987075;28;20234;-80
2023/03/01 08:36:30;;;;;;;16.30;11.07;;;4.40;99.90;;;;;;4987899;28;20623;-80
2023/03/01 08:38:59;;;;;;;15.63;10.60;;;4.40;99.90;;;;;;4987395;28;20273;-80
2023/03/01 08:41:26;;;;;;;15.63;11.00;;;4.50;99.90;;;;;;4981823;28;20228;-80
2023/03/01 08:43:58;;;;;;;18.93;11.10;;;4.60;99.90;;;;;;4986418;28;20236;-80
2023/03/01 08:46:25;;;;;;;15.43;10.70;;;4.70;99.90;;;;;;4971720;28;20250;-79
2023/03/01 08:48:51;;;;;;;15.50;10.90;;;4.80;99.90;;;;;;4988410;28;20607;-80
2023/03/01 08:51:20;;;;;;;14.30;10.97;;;4.90;99.90;;;;;;4990679;28;20219;-80
2023/03/01 08:53:49;;;;;;;24.47;16.07;;;5.00;99.90;;;;;;4986035;28;20232;-80
2023/03/01 08:56:19;;;;;;;15.03;10.77;;;5.10;99.90;;;;;;4976876;28;20320;-79
2023/03/01 08:58:46;;;;;;;15.70;10.73;;;5.30;99.90;;;;;;4996343;28;20236;-80
2023/03/01 09:01:15;;;;;;;14.27;10.13;;;5.50;99.90;;;;;;4988733;28;20244;-79
2023/03/01 09:03:42;;;;;;;17.70;10.53;;;5.50;99.90;;;;;;4986765;28;20230;-79
2023/03/01 09:06:10;;;;;;;12.47;9.80;;;5.70;99.90;;;;;;4985746;28;20321;-80
2023/03/01 09:08:38;;;;;;;15.67;10.40;;;5.80;99.90;;;;;;5011106;28;20603;-80
2023/03/01 09:11:05;;;;;;;14.97;10.50;;;5.90;99.90;;;;;;4984161;28;20237;-80
2023/03/01 09:13:34;;;;;;;13.27;10.33;;;6.10;99.90;;;;;;4992150;28;20228;-80
2023/03/01 09:16:03;;;;;;;20.20;11.93;;;6.20;99.90;;;;;;4989373;28;20293;-79
2023/03/01 09:18:30;;;;;;;13.43;10.13;;;6.40;99.90;;;;;;4987404;28;20232;-80
2023/03/01 09:21:07;;;;;;;13.67;9.63;;;6.70;99.90;;;;;;4994850;28;20340;-80
2023/03/01 09:23:36;;;;;;;13.40;9.10;;;7.00;99.90;;;;;;4986580;28;20982;-80
2023/03/01 09:26:02;;;;;;;13.20;9.43;;;7.30;99.70;;;;;;4984974;28;20315;-80
2023/03/01 09:28:29;;;;;;;11.87;9.47;;;7.50;99.30;;;;;;4983941;28;20224;-80
2023/03/01 09:31:00;;;;;;;11.07;9.17;;;7.70;98.90;;;;;;4996966;28;20228;-80
2023/03/01 09:33:26;;;;;;;12.07;8.73;;;7.70;98.40;;;;;;4977228;28;20727;-80
2023/03/01 09:35:57;;;;;;;14.60;10.80;;;7.80;98.40;;;;;;4989505;28;20223;-80
2023/03/01 09:38:24;;;;;;;12.27;9.37;;;7.80;97.70;;;;;;4978072;28;20725;-80
2023/03/01 09:40:50;;;;;;;12.67;8.63;;;7.80;97.90;;;;;;4994847;28;20246;-80
2023/03/01 09:43:24;;;;;;;13.60;9.13;;;7.80;97.80;;;;;;4996960;28;20236;-80
2023/03/01 09:45:53;;;;;;;12.90;8.73;;;7.80;97.70;;;;;;4990396;28;20239;-80
2023/03/01 09:48:24;;;;;;;13.47;9.50;;;7.90;97.90;;;;;;4986590;28;20231;-80
2023/03/01 09:50:52;;;;;;;12.80;9.10;;;8.00;98.20;;;;;;4988736;28;20252;-80
2023/03/01 09:53:20;;;;;;;13.73;9.30;;;8.10;97.90;;;;;;4989783;28;20341;-79
2023/03/01 09:55:52;;;;;;;13.13;9.90;;;8.30;97.80;;;;;;4982751;28;20786;-80
2023/03/01 09:58:39;;;;;;;11.27;9.33;;;8.50;97.70;;;;;;4985667;28;20232;-80
2023/03/01 10:01:20;;;;;;;13.70;9.87;;;8.80;97.50;;;;;;4989676;28;20239;-80
2023/03/01 10:04:01;;;;;;;11.70;9.03;;;9.10;97.40;;;;;;4987082;28;20226;-79
2023/03/01 10:06:27;;;;;;;12.00;8.93;;;9.40;97.20;;;;;;4993886;28;20229;-80
2023/03/01 10:08:57;;;;;;;13.73;9.80;;;9.70;97.20;;;;;;4989205;28;20233;-80
2023/03/01 10:11:27;;;;;;;14.13;10.07;;;10.00;96.80;;;;;;4990987;28;20232;-80
2023/03/01 10:14:02;;;;;;;12.43;9.07;;;10.30;96.30;;;;;;4996745;28;20236;-80
2023/03/01 10:16:38;;;;;;;11.60;9.10;;;10.50;95.80;;;;;;4981457;28;20229;-80
2023/03/01 10:19:10;;;;;;;11.90;8.70;;;10.70;95.40;;;;;;4990910;28;20229;-80
2023/03/01 10:21:45;;;;;;;12.80;9.90;;;10.90;95.10;;;;;;4996686;28;20240;-80
2023/03/01 10:24:13;;;;;;;12.17;9.00;;;11.00;94.80;;;;;;4989008;28;20608;-80
2023/03/01 10:26:51;;;;;;;14.67;9.37;;;11.20;94.90;;;;;;4984701;28;20228;-80
2023/03/01 10:29:18;;;;;;;10.77;8.07;;;11.40;94.30;;;;;;4990100;28;20229;-80
2023/03/01 10:31:48;;;;;;;8.70;7.03;;;11.60;94.80;;;;;;4989505;28;20248;-80
2023/03/01 10:34:18;;;;;;;9.63;7.70;;;11.70;94.20;;;;;;4988922;28;20244;-80
2023/03/01 10:36:48;;;;;;;7.40;6.20;;;11.80;93.90;;;;;;4979447;28;20825;-80
2023/03/01 10:39:18;;;;;;;14.33;9.53;;;11.90;93.60;;;;;;4991623;28;20232;-80
2023/03/01 10:41:57;;;;;;;11.37;7.70;;;11.90;93.40;;;;;;4993820;28;20350;-80
2023/03/01 10:44:43;;;;;;;10.63;8.57;;;11.80;93.00;;;;;;5019539;23;20467;-76
2023/03/01 10:47:20;;;;;;;10.30;7.97;;;11.60;92.80;;;;;;5018740;28;20248;-76
2023/03/01 10:50:02;;;;;;;11.90;8.03;;;11.50;93.00;;;;;;5008064;28;20729;-76
2023/03/01 10:52:32;;;;;;;10.30;8.03;;;11.40;92.80;;;;;;4998307;28;20692;-75
2023/03/01 10:55:02;;;;;;;14.63;9.57;;;11.40;93.00;;;;;;4996023;28;20307;-75
2023/03/01 10:57:36;;;;;;;11.50;8.93;;;11.30;93.10;;;;;;4994660;28;20227;-76
2023/03/01 11:00:20;;;;;;;13.43;8.50;;;11.20;93.10;;;;;;5001091;28;20265;-76
2023/03/01 11:02:50;;;;;;;10.73;7.80;;;11.20;92.70;;;;;;5001130;28;20243;-75
2023/03/01 11:05:23;;;;;;;10.63;8.63;;;11.10;92.90;;;;;;5006170;28;20243;-75
2023/03/01 11:07:52;;;;;;;12.33;8.97;;;11.10;93.10;;;;;;5009902;28;20274;-75
2023/03/01 11:10:25;;;;;;;12.77;9.70;;;11.10;93.30;;;;;;5019797;28;20211;-75
2023/03/01 11:12:53;;;;;;;13.03;9.40;;;11.20;93.30;;;;;;4999996;28;20286;-76
2023/03/01 11:15:27;;;;;;;11.87;8.33;;;11.30;93.80;;;;;;5004884;28;20328;-76
2023/03/01 11:17:55;;;;;;;13.20;9.37;;;11.40;93.60;;;;;;5003880;28;20666;-75
2023/03/01 11:20:30;;;;;;;11.97;9.03;;;11.60;93.80;;;;;;4998588;28;20227;-76
2023/03/01 11:23:00;;;;;;;13.37;9.23;;;11.70;93.60;;;;;;5007527;28;20716;-76
2023/03/01 11:25:32;;;;;;;10.70;7.83;;;11.90;93.40;;;;;;5012875;28;20252;-76
2023/03/01 11:28:02;;;;;;;10.23;7.80;;;12.10;93.20;;;;;;5001531;28;20227;-76
2023/03/01 11:30:33;;;;;;;10.43;7.80;;;12.20;92.90;;;;;;5002524;28;20312;-76
2023/03/01 11:33:14;;;;;;;9.90;7.43;;;12.30;92.10;;;;;;5004412;28;20226;-76
2023/03/01 11:35:48;;;;;;;8.47;7.10;;;12.40;92.50;;;;;;5005209;28;20734;-76
2023/03/01 11:38:22;;;;;;;8.33;7.03;;;12.40;92.30;;;;;;5000027;28;20242;-76
2023/03/01 11:40:55;;;;;;;8.70;6.37;;;12.50;92.10;;;;;;5008532;28;20218;-76
2023/03/01 11:43:27;;;;;;;9.40;6.77;;;12.60;92.90;;;;;;4995269;28;20311;-76
2023/03/01 11:46:39;;;;;;;9.43;7.40;;;12.70;92.50;;;;;;5009170;28;20227;-76
2023/03/01 11:49:33;;;;;;;8.97;7.20;;;12.90;91.90;;;;;;4962559;28;20314;-76
2023/03/01 11:52:05;;;;;;;9.50;7.60;;;13.00;92.10;;;;;;4986002;28;20223;-76
2023/03/01 11:54:47;;;;;;;7.40;6.60;;;13.10;91.70;;;;;;5003795;28;20828;-76
2023/03/01 11:57:27;;;;;;;7.57;6.13;;;13.20;91.40;;;;;;5011045;28;20226;-76
2023/03/01 12:00:11;;;;;;;8.70;6.97;;;13.30;91.30;;;;;;4999324;28;20219;-76
2023/03/01 12:03:10;;;;;;;9.60;7.20;;;13.40;90.90;;;;;;4995149;28;20227;-76
2023/03/01 12:05:51;;;;;;;9.33;6.90;;;13.40;90.90;;;;;;4997977;28;20320;-76
2023/03/01 12:08:27;;;;;;;8.53;6.93;;;13.50;91.10;;;;;;4999201;28;20631;-76
2023/03/01 12:11:04;;;;;;;9.33;7.10;;;13.60;90.70;;;;;;5010250;28;20644;-76
2023/03/01 12:14:04;;;;;;;9.17;6.90;;;13.70;90.80;;;;;;4993397;28;20240;-76
2023/03/01 12:16:59;;;;;;;8.30;6.40;;;13.70;91.00;;;;;;4976316;28;20297;-76
2023/03/01 12:19:38;;;;;;;7.53;6.20;;;13.70;90.20;;;;;;4995565;28;20237;-76
2023/03/01 12:22:15;;;;;;;8.50;6.20;;;13.70;90.40;;;;;;5002622;28;20233;-76
2023/03/01 12:25:03;;;;;;;8.10;5.90;;;13.60;90.50;;;;;;4994142;28;20219;-76
2023/03/01 12:28:00;;;;;;;8.37;5.20;;;13.50;89.50;;;;;;4996139;28;20532;-76
2023/03/01 12:30:40;;;;;;;8.80;6.07;;;13.40;89.30;;;;;;4996608;28;20294;-76
2023/03/01 12:33:20;;;;;;;5.60;4.50;;;13.30;88.20;;;;;;4993846;28;20281;-76
2023/03/01 12:36:05;;;;;;;6.00;4.83;;;13.10;89.40;;;;;;4983248;28;20310;-76
2023/03/01 12:38:38;;;;;;;6.47;4.73;;;13.00;89.10;;;;;;4997161;28;20228;-76
2023/03/01 12:41:35;;;;;;;6.97;4.70;;;12.80;89.50;;;;;;5003944;28;20273;-76
2023/03/01 12:44:12;;;;;;;5.20;4.40;;;12.70;90.40;;;;;;4993857;28;20725;-76
2023/03/01 12:46:52;;;;;;;7.23;5.93;;;12.60;90.10;;;;;;5004882;28;20233;-75
2023/03/01 12:49:26;;;;;;;6.73;4.90;;;12.50;90.20;;;;;;4977566;28;20572;-76
2023/03/01 12:51:57;;;;;;;7.40;5.50;;;12.50;90.20;;;;;;4998184;28;20327;-76
2023/03/01 12:54:29;;;;;;;6.63;5.20;;;12.40;90.20;;;;;;4994892;28;20339;-76
2023/03/01 12:57:00;;;;;;;6.33;4.80;;;12.40;90.10;;;;;;4994418;28;20226;-76
2023/03/01 12:59:34;;;;;;;6.80;5.20;;;12.30;89.80;;;;;;5002860;28;20316;-76
2023/03/01 13:02:10;;;;;;;6.40;4.50;;;12.20;90.10;;;;;;4992896;28;20229;-76
2023/03/01 13:04:48;;;;;;;13.73;11.00;;;12.10;90.40;;;;;;4997533;28;20296;-76
2023/03/01 13:07:25;;;;;;;6.20;5.07;;;12.00;90.20;;;;;;4990265;28;20224;-76
2023/03/01 13:10:01;;;;;;;4.73;3.90;;;11.80;90.20;;;;;;4996948;28;20222;-76